Portada
METAR-TAF:

METAR-TAF

Aeropuertos :

Aeropuerto de Tetuán-Sania Ramel

Tetuán, Marruecos

latitud: 35-35N, longitud: 005-20W, altitud: 10 m

Observación

El informe se hizo hace 46 minutos, a las 12:00 UTC
Viento 14 kt del oeste, variando entre suroeste y noroeste
Temperatura 26°C
Humedad 45%
Presión 1014 hPa
Nubes dispersas a una altura de 2700 ft

METAR: GMTN 261200Z 26014KT 230V310 SCT027 26/13 Q1014 NOSIG

Hora: 13:46 (12:46 UTC)


TAF: falta

Observaciones y pronósticos meteorológicos de más de 4000 aeropuertos (mensajes METAR y TAF).

Los puntos amarillos y rojos representan las estaciones disponibles.

Ponga el ratón en el punto deseado para ver el nombre de la estación.

Haga clic para ver las observaciones y los pronósticos meteorológicos.

Para cambiar el mapa : haga clic en los botones verdes con una cruz de color negro para hacer un zoom, en el botón verde con un guión para alejar o en las flechas verdes para mapas adyacentes.


METAR-TAF: